Webcam op het Zuiden Meer informatie Webcam op het Zuiden


Webcam op het Westen Meer informatie Webcam op het Westen


Onweer radar Meer informatie blitzortung!


Regen radar  rain snow radar


Lokaal brand risico:
CBI


Regionaal brand risico: Meer informatie


Lokaal brand risico:
Gebaseerd op actuele waarde
CBI


Bezoek ook deze websites:

Template documentation
and downloads

And another site



Het weer levert geen direct gevaar op.    Er zijn geen waarschuwingen afgegeven.

METAR rapporten vliegvelden

   
ETWM - Meppen, Germany
Afstand tot: O 29 km
Gewijzigd: 25-02-2020 00:20
  
  
   Wind: WZW 27.8 km/h
Wind: WZW 27.8 km/h
Temperatuur: 10°C
Voelt als: 7°C
Dauwpunt: 8°C
Vochtigheid: 88%
Barometer: 998 hPa
ETWM 242320Z AUTO 25015KT //// // ////// 10/08 Q0998 ///
EHGG - Groningen/Eelde, Netherlands
Afstand tot: NNW 47 km
Gewijzigd: 25-02-2020 00:55
Grotendeels bewolkt  
Grotendeels bewolkt  
   Wind: Westen 42.6 km/h<br />Gust to 42.6 km/h
Wind: Westen 42.6 km/h
Gust to 42.6 km/h
Temperatuur: 8°C
Voelt als: 3°C
Dauwpunt: 3°C
Vochtigheid: 71%
Barometer: 997 hPa
Bewolking: Grotendeels bewolkt
Zicht: meer dan 10 km
Bewolking: Licht bewolkt 2000 ft,
Gedeeltelijk bewolkt 3700 ft,
Grotendeels bewolkt 4500 ft
EHGG 242355Z AUTO 27023G34KT 240V310 9999 FEW020CB SCT037 BKN045 08/03 Q0997 REDZ
EDDG - Muenster/Osnabru, Germany
Afstand tot: ZO 87 km
Gewijzigd: 25-02-2020 00:50
Wat regen mogelijk, Grotendeels bewolkt  
Wat regen mogelijk, Grotendeels bewolkt  
   Wind: ZW 29.6 km/h
Wind: ZW 29.6 km/h
Temperatuur: 10°C
Voelt als: 7°C
Dauwpunt: 8°C
Vochtigheid: 88%
Barometer: 1000 hPa
Bewolking: Grotendeels bewolkt
Zicht: meer dan 10 km
Bewolking: Grotendeels bewolkt 1900 ft
EDDG 242350Z 23016KT 9999 -RA BKN019 10/08 Q1000 TEMPO 23015G25KT
EHLW - Leeuwarden Rnlaf, Netherlands
Afstand tot: NW 93 km
Gewijzigd: 25-02-2020 00:55
Helder  
Helder  
   Wind: Westen 40.7 km/h<br />Gust to 40.7 km/h
Wind: Westen 40.7 km/h
Gust to 40.7 km/h
Temperatuur: 7°C
Voelt als: 2°C
Dauwpunt: 3°C
Vochtigheid: 76%
Barometer: 997 hPa
Bewolking: Helder
Zicht: meer dan 10 km
Bewolking: Helder
EHLW 242355Z AUTO 27022G32KT 240V300 9999 NCD 07/03 Q0997 BLU
ETNT - Wittmundhaven(Ga, Germany
Afstand tot: NNO 100 km
Gewijzigd: 25-02-2020 00:41
Grotendeels bewolkt  
Grotendeels bewolkt  
   Wind: Westen 42.6 km/h<br />Gust to 42.6 km/h
Wind: Westen 42.6 km/h
Gust to 42.6 km/h
Temperatuur: 9°C
Voelt als: 4°C
Dauwpunt: 6°C
Vochtigheid: 82%
Barometer: 995 hPa
Bewolking: Grotendeels bewolkt
Zicht: meer dan 10 km
Bewolking: Grotendeels bewolkt 2000 ft
ETNT 242341Z 27023G35KT 9999 BKN020 09/06 Q0995 WHT
ETND - Diepholz (ger-Af, Germany
Afstand tot: O 104 km
Gewijzigd: 24-02-2020 15:20
Verouderd
Wat regen mogelijk, Nevel, Grotendeels bewolkt  
Wat regen mogelijk, Nevel, Grotendeels bewolkt  
   Wind: ZZO 22.2 km/h
Wind: ZZO 22.2 km/h
Temperatuur: 4°C
Voelt als: -1°C
Dauwpunt: 4°C
Vochtigheid: 100%
Barometer: 1007 hPa
Bewolking: Grotendeels bewolkt
Zicht: 4 km
Bewolking: Licht bewolkt 700 ft,
Grotendeels bewolkt 1000 ft
ETND 241420Z 15012KT 3700 -RA BR FEW007 BKN010 04/04 Q1007 GRN
ETNT - Wittmundhaven(Ga, Germany
Afstand tot: NNO 102 km
Gewijzigd: 25-02-2020 00:41
Grotendeels bewolkt  
Grotendeels bewolkt  
   Wind: Westen 42.6 km/h<br />Gust to 42.6 km/h
Wind: Westen 42.6 km/h
Gust to 42.6 km/h
Temperatuur: 9°C
Voelt als: 4°C
Dauwpunt: 6°C
Vochtigheid: 82%
Barometer: 995 hPa
Bewolking: Grotendeels bewolkt
Zicht: meer dan 10 km
Bewolking: Grotendeels bewolkt 2000 ft
ETNT 242341Z 27023G35KT 9999 BKN020 09/06 Q0995 WHT
EHDL - Deelen Rnlafb, Netherlands
Afstand tot: ZW 103 km
Gewijzigd: 25-02-2020 00:55
Grotendeels bewolkt  
Grotendeels bewolkt  
   Wind: WZW 31.5 km/h
Wind: WZW 31.5 km/h
Temperatuur: 10°C
Voelt als: 7°C
Dauwpunt: 8°C
Vochtigheid: 88%
Barometer: 1001 hPa
Bewolking: Grotendeels bewolkt
Zicht: meer dan 10 km
Bewolking: Licht bewolkt 1600 ft,
Grotendeels bewolkt 2000 ft,
Grotendeels bewolkt 2500 ft
EHDL 242355Z AUTO 24017KT 190V310 9999 FEW016 BKN020 BKN025 10/08 Q1001 WHT
EHMA - Awg-1 Sea, Netherlands
Afstand tot: NW 105 km
Gewijzigd: 25-02-2020 00:55
Gedeeltelijk bewolkt  
Gedeeltelijk bewolkt  
   Wind: Westen 59.3 km/h
Wind: Westen 59.3 km/h
Temperatuur: 8°C
Voelt als: 2°C
Dauwpunt: 3°C
Vochtigheid: 71%
Barometer: 996 hPa
Bewolking: Gedeeltelijk bewolkt
Zicht: meer dan 10 km
Bewolking: Licht bewolkt 2600 ft,
Gedeeltelijk bewolkt 2900 ft
EHMA 242355Z AUTO 27032KT 9999 FEW026 SCT029 08/03 Q0996
EDDW - Bremen, Germany
Afstand tot: ONO 135 km
Gewijzigd: 25-02-2020 00:50
Wat regen mogelijk, Grotendeels bewolkt  
Wat regen mogelijk, Grotendeels bewolkt  
   Wind: WZW 31.5 km/h
Wind: WZW 31.5 km/h
Temperatuur: 10°C
Voelt als: 7°C
Dauwpunt: 8°C
Vochtigheid: 88%
Barometer: 996 hPa
Bewolking: Grotendeels bewolkt
Zicht: meer dan 10 km
Bewolking: Grotendeels bewolkt 1500 ft
EDDW 242350Z 24017KT 9999 -RA BKN015 10/08 Q0996
EHVL - Vlieland Island, Netherlands
Afstand tot: WNW 138 km
Gewijzigd: 25-02-2020 00:55
Licht bewolkt  
Licht bewolkt  
   Wind: Westen 63 km/h
Wind: Westen 63 km/h
Temperatuur: 7°C
Voelt als: 1°C
Dauwpunt: 3°C
Vochtigheid: 76%
Barometer: 995 hPa
Bewolking: Licht bewolkt
Zicht: meer dan 10 km
Bewolking: Licht bewolkt 3000 ft
EHVL 242355Z AUTO 27034KT 9999 FEW030 07/03 Q0995 BLU
EDLV - Niederrhein, Germany
Afstand tot: ZZW 139 km
Gewijzigd: 24-02-2020 23:50
Verouderd
Grotendeels bewolkt  
Grotendeels bewolkt  
   Wind: WZW 31.5 km/h
Wind: WZW 31.5 km/h
Temperatuur: 11°C
Dauwpunt: 9°C
Vochtigheid: 88%
Barometer: 1003 hPa
Bewolking: Grotendeels bewolkt
Zicht: meer dan 10 km
Bewolking: Grotendeels bewolkt 1400 ft
EDLV 242250Z 24017KT 9999 BKN014 11/09 Q1003
EHKD - De Kooy (navy), Netherlands
Afstand tot: W 144 km
Gewijzigd: 25-02-2020 00:55
Helder  
Helder  
   Wind: Westen 48.2 km/h<br />Gust to 48.2 km/h
Wind: Westen 48.2 km/h
Gust to 48.2 km/h
Temperatuur: 8°C
Voelt als: 3°C
Dauwpunt: 2°C
Vochtigheid: 66%
Barometer: 999 hPa
Bewolking: Helder
Zicht: meer dan 10 km
Bewolking: Helder
EHKD 242355Z AUTO 26026G39KT 230V290 9999 NCD 08/02 Q0999 BLU
EDLW - Dortmund/Wickede, Germany
Afstand tot: ZZO 150 km
Gewijzigd: 25-02-2020 00:50
Bewolking  
Bewolking  
   Wind: ZW 33.3 km/h<br />Gust to 33.3 km/h
Wind: ZW 33.3 km/h
Gust to 33.3 km/h
Temperatuur: 10°C
Voelt als: 6°C
Dauwpunt: 8°C
Vochtigheid: 88%
Barometer: 1002 hPa
Bewolking: Bewolking
Zicht: meer dan 10 km
Bewolking: Licht bewolkt 900 ft,
Grotendeels bewolkt 1100 ft,
Bewolking 2100 ft
EDLW 242350Z AUTO 23018G28KT 9999 // FEW009/// BKN011/// OVC021/// 10/08 Q1002
EHVK - Volkel Rnlafb, Netherlands
Afstand tot: ZZW 149 km
Gewijzigd: 25-02-2020 00:55
Bewolking  
Bewolking  
   Wind: WZW 31.5 km/h
Wind: WZW 31.5 km/h
Temperatuur: 11°C
Dauwpunt: 8°C
Vochtigheid: 82%
Barometer: 1002 hPa
Bewolking: Bewolking
Zicht: meer dan 10 km
Bewolking: Grotendeels bewolkt 1600 ft,
Grotendeels bewolkt 2000 ft,
Bewolking 2400 ft
EHVK 242355Z AUTO 24017KT 9999 BKN016 BKN020 OVC024 11/08 Q1002 WHT
EDLW - Dortmund/Wickede, Germany
Afstand tot: ZZO 150 km
Gewijzigd: 25-02-2020 00:50
Bewolking  
Bewolking  
   Wind: ZW 33.3 km/h<br />Gust to 33.3 km/h
Wind: ZW 33.3 km/h
Gust to 33.3 km/h
Temperatuur: 10°C
Voelt als: 6°C
Dauwpunt: 8°C
Vochtigheid: 88%
Barometer: 1002 hPa
Bewolking: Bewolking
Zicht: meer dan 10 km
Bewolking: Licht bewolkt 900 ft,
Grotendeels bewolkt 1100 ft,
Bewolking 2100 ft
EDLW 242350Z AUTO 23018G28KT 9999 // FEW009/// BKN011/// OVC021/// 10/08 Q1002
EHMG - L9-Ff-1 Sea, Netherlands
Afstand tot: NW 155 km
Gewijzigd: 25-02-2020 00:55
Gedeeltelijk bewolkt  
Gedeeltelijk bewolkt  
   Wind: Westen 66.7 km/h
Wind: Westen 66.7 km/h
Temperatuur: 8°C
Voelt als: 2°C
Dauwpunt: 3°C
Vochtigheid: 71%
Barometer: 996 hPa
Bewolking: Gedeeltelijk bewolkt
Zicht: meer dan 10 km
Bewolking: Gedeeltelijk bewolkt 2400 ft,
Gedeeltelijk bewolkt 2700 ft
EHMG 242355Z AUTO 26036KT 9999 SCT024 SCT027 08/03 Q0996
ETHB - Buckeburg(Ger-Ar, Germany
Afstand tot: OZO 161 km
Gewijzigd: 25-02-2020 00:20
Lichte (mot)regen, Regen, Bewolking  
Lichte (mot)regen, Regen, Bewolking  
   Wind: Westen 25.9 km/h<br />Gust to 25.9 km/h
Wind: Westen 25.9 km/h
Gust to 25.9 km/h
Temperatuur: 10°C
Voelt als: 7°C
Dauwpunt: 8°C
Vochtigheid: 88%
Barometer: 999 hPa
Bewolking: Bewolking
Zicht: 8 km
Bewolking: Gedeeltelijk bewolkt 800 ft,
Bewolking 1300 ft
ETHB 242320Z 26014G24KT 8000 -DZRA SCT008 OVC013 10/08 Q0999 GRN
ETMN - Nordholz (ger-Na, Germany
Afstand tot: NO 164 km
Gewijzigd: 25-02-2020 00:57
Regenbuien, Regen, Bewolking  
Regenbuien, Regen, Bewolking  
   Wind: Westen 38.9 km/h<br />Gust to 38.9 km/h
Wind: Westen 38.9 km/h
Gust to 38.9 km/h
Temperatuur: 9°C
Voelt als: 4°C
Dauwpunt: 7°C
Vochtigheid: 87%
Barometer: 994 hPa
Bewolking: Bewolking
Zicht: 8 km
Bewolking: Grotendeels bewolkt 900 ft,
Bewolking 3500 ft
ETMN 242357Z 26021G35KT 8000 SHRA BKN009 OVC035 09/07 Q0994 GRN
EDDL - Duesseldorf, Germany
Afstand tot: Z 165 km
Gewijzigd: 25-02-2020 00:50
Wat regen mogelijk, Motregen, Grotendeels bewolkt  
Wat regen mogelijk, Motregen, Grotendeels bewolkt  
   Wind: ZW 31.5 km/h
Wind: ZW 31.5 km/h
Temperatuur: 11°C
Dauwpunt: 9°C
Vochtigheid: 88%
Barometer: 1003 hPa
Bewolking: Grotendeels bewolkt
Zicht: meer dan 10 km
Bewolking: Licht bewolkt 1300 ft,
Gedeeltelijk bewolkt 1600 ft,
Grotendeels bewolkt 2000 ft
EDDL 242350Z 23017KT 9999 -RADZ FEW013 SCT016 BKN020 11/09 Q1003 TEMPO BKN014
EDLN - Monchengladbach, Germany
Afstand tot: Z 174 km
Gewijzigd: 25-02-2020 00:50
Bewolking  
Bewolking  
   Wind: WZW 18.5 km/h
Wind: WZW 18.5 km/h
Temperatuur: 10°C
Voelt als: 8°C
Dauwpunt: 9°C
Vochtigheid: 94%
Barometer: 1003 hPa
Bewolking: Bewolking
Zicht: 6 km
Bewolking: Licht bewolkt 1300 ft,
Bewolking 1500 ft
EDLN 242350Z AUTO 25010KT 210V300 6000 // FEW013/// OVC015/// 10/09 Q1003

Script ontwikkeld door  Saratoga-weather.org Aangepast voor de template door  Weerstation Leuven

U vindt ons ook hier:

Het Weer Aktueel

European Weather Network

Weather Underground

Wetterpage 24

Apparatuur in gebruik:

Weerstation
Davis VP2

Weerprogramma
Meteohub

Hardware
RaspberryPI, Wireless Weather Envoy, MeteoStick, TP-Link MR3020

Leverancier
Weerhuisje.nl weerstations

Davis VP2

Meteohub

RaspberryPI, Wireless Weather Envoy, MeteoStick, TP-Link MR3020

Weerhuisje.nl weerstations